createdAt,value
2023-05-21T00:00:51.636Z,13.90
2023-05-21T00:03:18.498Z,13.94
2023-05-21T00:05:47.309Z,14.11
2023-05-21T00:08:14.290Z,14.17
2023-05-21T00:10:40.988Z,13.97
2023-05-21T00:13:09.113Z,13.62
2023-05-21T00:15:36.312Z,14.35
2023-05-21T00:18:03.702Z,14.38
2023-05-21T00:20:32.386Z,13.82
2023-05-21T00:22:59.846Z,14.47
2023-05-21T00:25:26.452Z,14.02
2023-05-21T00:27:54.428Z,14.41
2023-05-21T00:30:21.151Z,14.29
2023-05-21T00:32:47.886Z,14.53
2023-05-21T00:35:14.858Z,14.51
2023-05-21T00:37:41.511Z,13.85
2023-05-21T00:40:09.306Z,14.44
2023-05-21T00:42:39.528Z,14.14
2023-05-21T00:45:07.664Z,14.34
2023-05-21T00:47:35.231Z,14.23
2023-05-21T00:50:04.050Z,14.31
2023-05-21T00:52:31.144Z,14.31
2023-05-21T00:54:57.943Z,14.23
2023-05-21T00:57:27.325Z,14.34
2023-05-21T00:59:54.289Z,14.32
2023-05-21T01:02:24.112Z,14.18
2023-05-21T01:04:54.651Z,14.08
2023-05-21T01:07:21.941Z,14.22
2023-05-21T01:09:48.768Z,14.03
2023-05-21T01:12:17.755Z,14.01
2023-05-21T01:14:45.213Z,13.93
2023-05-21T01:17:13.066Z,14.04
2023-05-21T01:19:39.980Z,14.10
2023-05-21T01:22:07.935Z,14.16
2023-05-21T01:24:35.048Z,14.19
2023-05-21T01:27:03.257Z,14.19
2023-05-21T01:29:29.932Z,14.03
2023-05-21T01:32:16.445Z,14.23
2023-05-21T01:34:56.050Z,14.28
2023-05-21T01:37:48.902Z,13.87
2023-05-21T01:40:21.675Z,14.11
2023-05-21T01:42:48.620Z,13.85
2023-05-21T01:45:16.750Z,14.17
2023-05-21T01:47:47.807Z,14.15
2023-05-21T01:50:15.800Z,14.36
2023-05-21T01:52:51.442Z,14.50
2023-05-21T01:55:18.649Z,14.67
2023-05-21T01:57:45.594Z,14.79
2023-05-21T02:00:13.726Z,14.68
2023-05-21T02:02:40.396Z,14.74
2023-05-21T02:05:08.787Z,14.56
2023-05-21T02:07:35.498Z,14.72
2023-05-21T02:10:02.099Z,14.74
2023-05-21T02:12:29.543Z,14.26
2023-05-21T02:14:56.438Z,14.38
2023-05-21T02:17:24.411Z,14.77
2023-05-21T02:19:50.994Z,14.83
2023-05-21T02:22:17.884Z,14.93
2023-05-21T02:24:44.598Z,15.03
2023-05-21T02:27:13.510Z,15.24
2023-05-21T02:29:40.095Z,14.90
2023-05-21T02:32:07.057Z,15.45
2023-05-21T02:34:35.049Z,15.43
2023-05-21T02:37:01.834Z,15.52
2023-05-21T02:39:28.562Z,15.86
2023-05-21T02:41:55.152Z,15.65
2023-05-21T02:44:24.070Z,16.17
2023-05-21T02:46:50.856Z,16.03
2023-05-21T02:49:17.498Z,16.30
2023-05-21T02:51:44.085Z,16.67
2023-05-21T02:54:10.690Z,16.80
2023-05-21T02:56:37.271Z,16.85
2023-05-21T02:59:03.963Z,16.84
2023-05-21T03:01:30.585Z,16.83
2023-05-21T03:03:57.259Z,16.93
2023-05-21T03:06:23.875Z,16.95
2023-05-21T03:08:50.532Z,16.54
2023-05-21T03:11:19.162Z,17.04
2023-05-21T03:13:45.957Z,17.16
2023-05-21T03:16:12.758Z,17.14
2023-05-21T03:18:39.422Z,17.10
2023-05-21T03:21:06.055Z,17.11
2023-05-21T03:23:32.731Z,17.13
2023-05-21T03:25:59.364Z,17.07
2023-05-21T03:28:26.011Z,16.84
2023-05-21T03:30:53.394Z,17.15
2023-05-21T03:33:20.083Z,17.16
2023-05-21T03:35:46.692Z,17.24
2023-05-21T03:38:13.363Z,17.16
2023-05-21T03:40:40.040Z,16.80
2023-05-21T03:43:06.962Z,17.31
2023-05-21T03:45:33.744Z,17.28
2023-05-21T03:48:02.015Z,17.26
2023-05-21T03:50:28.770Z,17.37
2023-05-21T03:52:55.477Z,16.64
2023-05-21T03:55:22.414Z,17.25
2023-05-21T03:57:49.014Z,16.90
2023-05-21T04:00:15.958Z,17.41
2023-05-21T04:02:42.738Z,17.56
2023-05-21T04:05:09.676Z,17.44
2023-05-21T04:07:38.315Z,17.47
2023-05-21T04:10:05.413Z,17.62
2023-05-21T04:12:32.156Z,17.67
2023-05-21T04:14:58.854Z,17.70
2023-05-21T04:17:27.100Z,17.22
2023-05-21T04:19:54.418Z,17.79
2023-05-21T04:22:21.741Z,17.81
2023-05-21T04:24:48.877Z,17.93
2023-05-21T04:27:16.823Z,18.06
2023-05-21T04:29:43.485Z,18.07
2023-05-21T04:32:10.142Z,18.18
2023-05-21T04:34:36.763Z,17.99
2023-05-21T04:37:03.492Z,18.39
2023-05-21T04:39:31.609Z,18.42
2023-05-21T04:41:58.194Z,18.42
2023-05-21T04:44:24.858Z,18.20
2023-05-21T04:46:52.742Z,18.51
2023-05-21T04:49:21.018Z,18.44
2023-05-21T04:51:49.404Z,18.51
2023-05-21T04:54:16.026Z,18.01
2023-05-21T04:56:42.657Z,18.55
2023-05-21T04:59:09.267Z,18.60
2023-05-21T05:01:38.464Z,18.72
2023-05-21T05:04:06.126Z,18.80
2023-05-21T05:06:32.900Z,18.71
2023-05-21T05:08:59.497Z,18.76
2023-05-21T05:11:26.665Z,18.54
2023-05-21T05:13:53.365Z,18.97
2023-05-21T05:16:25.112Z,19.02
2023-05-21T05:18:52.791Z,19.09
2023-05-21T05:21:21.816Z,18.87
2023-05-21T05:23:48.485Z,19.19
2023-05-21T05:26:15.127Z,19.27
2023-05-21T05:28:41.850Z,19.29
2023-05-21T05:31:08.973Z,19.32
2023-05-21T05:33:35.737Z,19.22
2023-05-21T05:36:02.426Z,19.14
2023-05-21T05:38:29.005Z,19.38
2023-05-21T05:40:55.739Z,19.28
2023-05-21T05:43:22.332Z,19.28
2023-05-21T05:45:48.972Z,18.95
2023-05-21T05:48:16.845Z,17.41
2023-05-21T05:50:44.423Z,18.84
2023-05-21T05:53:13.382Z,18.74
2023-05-21T05:55:40.931Z,19.21
2023-05-21T05:58:07.650Z,18.89
2023-05-21T06:00:34.280Z,19.09
2023-05-21T06:03:01.063Z,19.08
2023-05-21T06:05:27.818Z,19.22
2023-05-21T06:07:54.442Z,19.22
2023-05-21T06:10:21.165Z,19.16
2023-05-21T06:12:48.023Z,19.33
2023-05-21T06:15:19.480Z,19.38
2023-05-21T06:17:46.263Z,19.36
2023-05-21T06:20:13.117Z,19.42
2023-05-21T06:22:39.800Z,19.98
2023-05-21T06:25:07.203Z,19.87
2023-05-21T06:27:33.864Z,19.81
2023-05-21T06:30:00.583Z,20.65
2023-05-21T06:32:27.342Z,21.01
2023-05-21T06:34:53.990Z,21.21
2023-05-21T06:37:21.715Z,21.26
2023-05-21T06:39:48.417Z,21.31
2023-05-21T06:42:15.107Z,21.10
2023-05-21T06:44:42.180Z,20.95
2023-05-21T06:47:08.773Z,21.38
2023-05-21T06:49:35.444Z,21.44
2023-05-21T06:52:02.280Z,21.59
2023-05-21T06:54:29.037Z,21.08
2023-05-21T06:56:55.855Z,21.16
2023-05-21T06:59:22.517Z,20.97
2023-05-21T07:01:49.280Z,20.39
2023-05-21T07:04:16.032Z,20.62
2023-05-21T07:06:42.653Z,20.66
2023-05-21T07:09:10.269Z,20.16
2023-05-21T07:11:36.887Z,20.33
2023-05-21T07:14:04.078Z,19.99
2023-05-21T07:16:30.770Z,19.84
2023-05-21T07:18:57.509Z,19.99
2023-05-21T07:21:24.390Z,20.21
2023-05-21T07:23:51.018Z,20.31
2023-05-21T07:26:17.761Z,20.55
2023-05-21T07:28:45.202Z,20.43
2023-05-21T07:31:12.469Z,20.84
2023-05-21T07:33:39.261Z,20.83
2023-05-21T07:36:06.758Z,20.83
2023-05-21T07:38:33.577Z,20.98
2023-05-21T07:41:00.213Z,20.84
2023-05-21T07:43:26.844Z,20.68
2023-05-21T07:45:53.509Z,21.29
2023-05-21T07:48:20.219Z,21.07
2023-05-21T07:50:49.651Z,21.17
2023-05-21T07:53:16.384Z,21.36
2023-05-21T07:55:47.885Z,21.70
2023-05-21T07:58:17.060Z,21.46
2023-05-21T08:00:45.344Z,21.07
2023-05-21T08:03:12.030Z,21.18
2023-05-21T08:05:39.043Z,20.61
2023-05-21T08:08:05.847Z,21.39
2023-05-21T08:10:32.428Z,21.45
2023-05-21T08:12:59.028Z,21.71
2023-05-21T08:15:25.701Z,21.56
2023-05-21T08:17:52.363Z,21.92
2023-05-21T08:20:20.495Z,21.80
2023-05-21T08:22:48.366Z,22.01
2023-05-21T08:25:15.058Z,21.69
2023-05-21T08:27:42.698Z,21.64
2023-05-21T08:30:11.536Z,21.42
2023-05-21T08:32:38.240Z,21.23
2023-05-21T08:35:06.076Z,21.87
2023-05-21T08:37:32.912Z,22.71
2023-05-21T08:39:59.618Z,23.12
2023-05-21T08:42:45.986Z,22.74
2023-05-21T08:45:14.586Z,23.19
2023-05-21T08:47:43.998Z,23.45
2023-05-21T08:50:13.438Z,23.65
2023-05-21T08:52:41.241Z,24.07
2023-05-21T08:55:09.056Z,23.50
2023-05-21T08:57:36.762Z,22.96
2023-05-21T09:00:07.165Z,22.29
2023-05-21T09:02:35.109Z,23.36
2023-05-21T09:05:03.455Z,22.86
2023-05-21T09:07:31.785Z,23.17
2023-05-21T09:10:05.189Z,23.49
2023-05-21T09:12:32.049Z,24.20
2023-05-21T09:15:00.337Z,24.00
2023-05-21T09:17:27.203Z,24.53
2023-05-21T09:20:16.270Z,25.18
2023-05-21T09:22:51.467Z,24.29
2023-05-21T09:25:24.912Z,23.27
2023-05-21T09:27:51.514Z,23.88
2023-05-21T09:30:20.865Z,23.52
2023-05-21T09:32:58.293Z,23.20
2023-05-21T09:35:25.672Z,22.72
2023-05-21T09:37:53.523Z,22.74
2023-05-21T09:40:21.675Z,23.16
2023-05-21T09:42:50.268Z,23.46
2023-05-21T09:45:21.544Z,23.30
2023-05-21T09:47:49.955Z,23.20
2023-05-21T09:50:21.885Z,22.48
2023-05-21T09:52:52.795Z,22.95
2023-05-21T09:55:23.618Z,22.72
2023-05-21T09:57:51.024Z,22.92
2023-05-21T10:00:22.412Z,22.86
2023-05-21T10:02:53.965Z,23.33
2023-05-21T10:05:21.171Z,23.33
2023-05-21T10:07:53.640Z,23.61
2023-05-21T10:10:24.644Z,23.97
2023-05-21T10:13:12.757Z,24.63
2023-05-21T10:15:43.945Z,24.85
2023-05-21T10:18:12.468Z,25.26
2023-05-21T10:20:40.071Z,25.38
2023-05-21T10:23:07.699Z,24.94
2023-05-21T10:25:36.227Z,25.38
2023-05-21T10:28:03.508Z,25.30
2023-05-21T10:30:30.210Z,25.58
2023-05-21T10:32:57.496Z,25.25
2023-05-21T10:35:24.768Z,25.14
2023-05-21T10:37:52.992Z,25.93
2023-05-21T10:40:20.541Z,26.16
2023-05-21T10:43:21.862Z,26.06
2023-05-21T10:46:07.529Z,26.30
2023-05-21T10:48:39.975Z,25.48
2023-05-21T10:51:25.073Z,25.31
2023-05-21T10:54:10.544Z,25.34
2023-05-21T10:57:00.142Z,25.47
2023-05-21T10:59:49.429Z,24.68
2023-05-21T11:02:17.911Z,24.69
2023-05-21T11:04:45.420Z,25.51
2023-05-21T11:07:13.243Z,24.85
2023-05-21T11:09:39.945Z,25.42
2023-05-21T11:12:08.211Z,25.38
2023-05-21T11:14:40.266Z,25.98
2023-05-21T11:17:09.696Z,26.51
2023-05-21T11:19:51.393Z,26.89
2023-05-21T11:22:22.069Z,26.16
2023-05-21T11:24:51.117Z,26.21
2023-05-21T11:27:37.604Z,25.43
2023-05-21T11:30:17.385Z,24.68
2023-05-21T11:33:10.101Z,24.07
2023-05-21T11:35:39.175Z,24.43
2023-05-21T11:38:09.319Z,23.84
2023-05-21T11:40:36.438Z,24.64
2023-05-21T11:43:03.428Z,24.50
2023-05-21T11:45:32.622Z,24.29
2023-05-21T11:48:00.692Z,24.24
2023-05-21T11:50:30.616Z,24.52
2023-05-21T11:52:57.884Z,24.57
2023-05-21T11:55:26.068Z,24.46
2023-05-21T11:57:54.607Z,24.42
2023-05-21T12:00:21.713Z,24.42
2023-05-21T12:02:52.497Z,24.51
2023-05-21T12:05:19.463Z,24.07
2023-05-21T12:07:48.953Z,24.14
2023-05-21T12:10:15.863Z,24.27
2023-05-21T12:12:53.878Z,24.22
2023-05-21T12:15:22.822Z,23.96
2023-05-21T12:17:51.140Z,23.93
2023-05-21T12:20:17.960Z,23.24
2023-05-21T12:22:44.881Z,23.08
2023-05-21T12:25:12.398Z,22.23
2023-05-21T12:27:39.394Z,22.29
2023-05-21T12:30:06.951Z,21.91
2023-05-21T12:32:35.035Z,21.34
2023-05-21T12:35:02.733Z,21.23
2023-05-21T12:37:32.453Z,21.13
2023-05-21T12:40:01.442Z,20.59
2023-05-21T12:42:34.782Z,20.46
2023-05-21T12:45:06.807Z,20.10
2023-05-21T12:47:33.805Z,20.01
2023-05-21T12:50:02.312Z,19.74
2023-05-21T12:52:30.833Z,19.71
2023-05-21T12:54:58.670Z,19.51
2023-05-21T12:57:38.921Z,19.40
2023-05-21T13:00:07.296Z,18.95
2023-05-21T13:02:41.144Z,19.35
2023-05-21T13:05:17.478Z,18.85
2023-05-21T13:07:46.851Z,19.28
2023-05-21T13:10:16.532Z,19.49
2023-05-21T13:12:44.555Z,19.14
2023-05-21T13:15:12.059Z,19.65
2023-05-21T13:17:38.938Z,19.62
2023-05-21T13:20:16.139Z,19.58
2023-05-21T13:22:52.727Z,19.09
2023-05-21T13:25:25.058Z,19.35
2023-05-21T13:27:53.736Z,19.33
2023-05-21T13:30:21.692Z,19.44
2023-05-21T13:32:48.814Z,19.51
2023-05-21T13:35:16.756Z,19.20
2023-05-21T13:37:44.043Z,19.52
2023-05-21T13:40:12.507Z,19.68
2023-05-21T13:42:39.258Z,19.60
2023-05-21T13:45:11.032Z,19.40
2023-05-21T13:47:40.284Z,19.45
2023-05-21T13:50:08.439Z,19.54
2023-05-21T13:52:35.412Z,19.64
2023-05-21T13:55:02.205Z,19.85
2023-05-21T13:57:30.885Z,19.89
2023-05-21T13:59:58.432Z,20.32
2023-05-21T14:02:25.472Z,20.49
2023-05-21T14:04:52.232Z,21.02
2023-05-21T14:07:19.051Z,21.09
2023-05-21T14:09:47.490Z,20.99
2023-05-21T14:12:14.249Z,21.91
2023-05-21T14:14:41.513Z,22.21
2023-05-21T14:17:08.212Z,22.18
2023-05-21T14:19:34.881Z,22.48
2023-05-21T14:22:01.522Z,22.63
2023-05-21T14:24:28.208Z,22.48
2023-05-21T14:26:54.868Z,21.89
2023-05-21T14:29:21.474Z,23.55
2023-05-21T14:31:48.604Z,25.03
2023-05-21T14:34:15.418Z,24.83
2023-05-21T14:36:42.100Z,24.39
2023-05-21T14:39:08.697Z,25.04
2023-05-21T14:41:39.195Z,25.65
2023-05-21T14:44:05.870Z,26.29
2023-05-21T14:46:32.671Z,26.89
2023-05-21T14:49:00.243Z,26.55
2023-05-21T14:51:26.898Z,27.28
2023-05-21T14:53:53.592Z,27.92
2023-05-21T14:56:22.183Z,28.19
2023-05-21T14:58:49.199Z,29.23
2023-05-21T15:01:15.927Z,29.70
2023-05-21T15:03:42.786Z,30.02
2023-05-21T15:06:09.853Z,29.63
2023-05-21T15:08:36.508Z,29.43
2023-05-21T15:11:03.120Z,28.95
2023-05-21T15:13:29.795Z,29.87
2023-05-21T15:15:56.617Z,30.44
2023-05-21T15:18:24.864Z,31.22
2023-05-21T15:20:51.988Z,31.42
2023-05-21T15:23:18.792Z,31.60
2023-05-21T15:25:45.799Z,31.81
2023-05-21T15:28:12.720Z,30.51
2023-05-21T15:30:39.754Z,30.01
2023-05-21T15:33:06.567Z,30.58
2023-05-21T15:35:35.089Z,31.48
2023-05-21T15:38:01.939Z,32.19
2023-05-21T15:40:28.569Z,32.72
2023-05-21T15:42:55.138Z,32.07
2023-05-21T15:45:21.858Z,31.30
2023-05-21T15:47:48.772Z,30.28
2023-05-21T15:50:15.684Z,29.14
2023-05-21T15:52:42.734Z,28.48
2023-05-21T15:55:09.901Z,27.38
2023-05-21T15:57:36.592Z,27.26
2023-05-21T16:00:04.931Z,27.61
2023-05-21T16:02:31.609Z,28.51
2023-05-21T16:04:58.360Z,29.33
2023-05-21T16:07:25.069Z,29.10
2023-05-21T16:09:51.695Z,29.06
2023-05-21T16:12:18.378Z,28.01
2023-05-21T16:14:48.454Z,27.93
2023-05-21T16:17:15.154Z,27.36
2023-05-21T16:19:41.810Z,26.73
2023-05-21T16:22:10.643Z,26.60
2023-05-21T16:24:37.575Z,26.10
2023-05-21T16:27:05.038Z,25.37
2023-05-21T16:29:31.952Z,24.01
2023-05-21T16:31:58.750Z,24.09
2023-05-21T16:34:25.712Z,24.72
2023-05-21T16:36:52.495Z,24.88
2023-05-21T16:39:19.104Z,23.26
2023-05-21T16:41:45.775Z,22.79
2023-05-21T16:44:12.375Z,22.19
2023-05-21T16:46:39.022Z,21.52
2023-05-21T16:49:05.728Z,21.69
2023-05-21T16:51:32.425Z,21.36
2023-05-21T16:53:59.016Z,21.27
2023-05-21T16:56:27.253Z,21.20
2023-05-21T16:58:53.842Z,20.54
2023-05-21T17:01:20.743Z,20.93
2023-05-21T17:03:47.516Z,21.07
2023-05-21T17:06:14.966Z,21.23
2023-05-21T17:08:42.748Z,20.66
2023-05-21T17:11:09.834Z,20.90
2023-05-21T17:13:36.612Z,20.98
2023-05-21T17:16:03.343Z,21.25
2023-05-21T17:18:31.315Z,21.16
2023-05-21T17:20:59.132Z,21.27
2023-05-21T17:23:26.121Z,21.31
2023-05-21T17:25:52.881Z,20.85
2023-05-21T17:28:19.827Z,21.35
2023-05-21T17:30:48.717Z,21.21
2023-05-21T17:33:16.453Z,21.25
2023-05-21T17:35:43.175Z,21.22
2023-05-21T17:38:10.396Z,21.11
2023-05-21T17:40:37.156Z,21.11
2023-05-21T17:43:05.094Z,20.91
2023-05-21T17:45:31.936Z,20.89
2023-05-21T17:48:00.376Z,20.67
2023-05-21T17:50:27.270Z,20.62
2023-05-21T17:52:53.888Z,20.61
2023-05-21T17:55:20.851Z,20.42
2023-05-21T17:57:47.440Z,20.47
2023-05-21T18:00:14.249Z,20.50
2023-05-21T18:02:41.401Z,20.41
2023-05-21T18:05:08.666Z,18.19
2023-05-21T18:07:35.802Z,20.10
2023-05-21T18:10:02.451Z,19.79
2023-05-21T18:12:29.149Z,19.48
2023-05-21T18:14:55.881Z,19.77
2023-05-21T18:17:22.649Z,19.60
2023-05-21T18:19:51.001Z,19.58
2023-05-21T18:22:17.699Z,19.47
2023-05-21T18:24:44.640Z,19.48
2023-05-21T18:27:12.409Z,19.46
2023-05-21T18:29:39.051Z,19.47
2023-05-21T18:32:06.450Z,19.32
2023-05-21T18:34:33.400Z,19.23
2023-05-21T18:37:00.560Z,19.21
2023-05-21T18:39:28.182Z,19.05
2023-05-21T18:42:11.312Z,18.29
2023-05-21T18:44:39.373Z,18.78
2023-05-21T18:47:07.805Z,18.21
2023-05-21T18:49:36.226Z,18.10
2023-05-21T18:52:04.417Z,18.55
2023-05-21T18:54:31.424Z,18.58
2023-05-21T18:57:00.855Z,18.58
2023-05-21T18:59:29.348Z,18.21
2023-05-21T19:01:56.331Z,18.42
2023-05-21T19:04:23.112Z,18.20
2023-05-21T19:06:50.045Z,17.98
2023-05-21T19:09:17.072Z,18.25
2023-05-21T19:11:44.089Z,18.10
2023-05-21T19:14:10.952Z,17.98
2023-05-21T19:16:37.904Z,17.74
2023-05-21T19:19:04.904Z,17.50
2023-05-21T19:21:32.525Z,17.45
2023-05-21T19:23:59.314Z,17.07
2023-05-21T19:26:26.107Z,17.48
2023-05-21T19:28:54.545Z,17.40
2023-05-21T19:31:22.931Z,17.48
2023-05-21T19:33:50.085Z,17.45
2023-05-21T19:36:17.019Z,17.53
2023-05-21T19:38:50.856Z,17.57
2023-05-21T19:41:18.782Z,17.47
2023-05-21T19:43:46.205Z,17.45
2023-05-21T19:46:17.242Z,16.97
2023-05-21T19:48:45.971Z,17.35
2023-05-21T19:51:13.335Z,17.19
2023-05-21T19:53:40.065Z,16.75
2023-05-21T19:56:07.732Z,17.17
2023-05-21T19:58:34.520Z,17.04
2023-05-21T20:01:01.501Z,17.17
2023-05-21T20:03:32.219Z,16.81
2023-05-21T20:05:59.166Z,17.08
2023-05-21T20:08:25.868Z,16.92
2023-05-21T20:10:52.613Z,17.11
2023-05-21T20:13:21.418Z,17.13
2023-05-21T20:15:48.201Z,17.14
2023-05-21T20:18:15.662Z,17.13
2023-05-21T20:20:43.089Z,17.08
2023-05-21T20:23:09.844Z,17.09
2023-05-21T20:25:36.582Z,16.99
2023-05-21T20:28:04.181Z,16.95
2023-05-21T20:30:36.389Z,16.97
2023-05-21T20:33:04.111Z,16.49
2023-05-21T20:35:31.129Z,16.51
2023-05-21T20:37:57.812Z,16.28
2023-05-21T20:40:24.698Z,16.73
2023-05-21T20:42:53.535Z,16.72
2023-05-21T20:45:21.192Z,16.75
2023-05-21T20:47:48.269Z,16.78
2023-05-21T20:50:17.698Z,16.48
2023-05-21T20:52:47.001Z,16.78
2023-05-21T20:55:14.782Z,16.63
2023-05-21T20:57:42.158Z,16.77
2023-05-21T21:00:11.845Z,16.84
2023-05-21T21:02:38.881Z,16.23
2023-05-21T21:05:06.231Z,16.26
2023-05-21T21:07:34.148Z,16.48
2023-05-21T21:10:01.478Z,16.58
2023-05-21T21:12:28.516Z,16.55
2023-05-21T21:14:55.746Z,16.67
2023-05-21T21:17:22.663Z,16.61
2023-05-21T21:19:49.279Z,16.46
2023-05-21T21:22:16.308Z,16.59
2023-05-21T21:24:42.932Z,16.60
2023-05-21T21:27:09.764Z,16.41
2023-05-21T21:29:36.423Z,16.04
2023-05-21T21:32:03.146Z,16.37
2023-05-21T21:34:29.843Z,16.34
2023-05-21T21:36:56.569Z,16.38
2023-05-21T21:39:23.227Z,16.30
2023-05-21T21:41:49.834Z,16.36
2023-05-21T21:44:16.453Z,16.21
2023-05-21T21:46:43.081Z,15.98
2023-05-21T21:49:09.733Z,16.02
2023-05-21T21:51:37.042Z,15.95
2023-05-21T21:54:04.171Z,15.84
2023-05-21T21:56:30.969Z,15.85
2023-05-21T21:58:57.620Z,15.74
2023-05-21T22:01:24.292Z,15.43
2023-05-21T22:03:50.955Z,15.22
2023-05-21T22:06:17.681Z,15.54
2023-05-21T22:08:44.480Z,15.60
2023-05-21T22:11:11.618Z,15.51
2023-05-21T22:13:38.522Z,15.68
2023-05-21T22:16:05.506Z,15.63
2023-05-21T22:18:40.923Z,15.23
2023-05-21T22:21:10.003Z,15.75
2023-05-21T22:23:37.671Z,15.62
2023-05-21T22:26:04.576Z,15.51
2023-05-21T22:28:31.187Z,15.51
2023-05-21T22:30:58.618Z,15.75
2023-05-21T22:33:26.756Z,15.75
2023-05-21T22:35:54.265Z,15.71
2023-05-21T22:38:21.002Z,15.85
2023-05-21T22:40:47.718Z,15.97
2023-05-21T22:43:14.514Z,16.05
2023-05-21T22:45:41.174Z,15.99
2023-05-21T22:48:09.466Z,16.15
2023-05-21T22:50:38.608Z,15.91
2023-05-21T22:53:06.242Z,16.43
2023-05-21T22:55:32.954Z,16.60
2023-05-21T22:57:59.635Z,16.73
2023-05-21T23:00:26.657Z,16.87
2023-05-21T23:02:54.583Z,16.88
2023-05-21T23:05:21.773Z,16.85
2023-05-21T23:07:48.482Z,16.74
2023-05-21T23:10:15.070Z,16.75
2023-05-21T23:12:41.679Z,16.78
2023-05-21T23:15:09.983Z,16.61
2023-05-21T23:17:37.624Z,16.67
2023-05-21T23:20:05.643Z,16.50
2023-05-21T23:22:32.400Z,16.92
2023-05-21T23:24:59.043Z,16.80
2023-05-21T23:27:25.708Z,16.79
2023-05-21T23:29:52.374Z,16.90
2023-05-21T23:32:19.245Z,16.46
2023-05-21T23:34:45.918Z,16.58
2023-05-21T23:37:12.719Z,16.37
2023-05-21T23:39:39.921Z,16.88
2023-05-21T23:42:06.854Z,16.99
2023-05-21T23:44:33.515Z,17.03
2023-05-21T23:47:00.159Z,16.91
2023-05-21T23:49:26.862Z,16.92
2023-05-21T23:51:53.741Z,16.93
2023-05-21T23:54:20.445Z,16.99
2023-05-21T23:56:47.586Z,16.96
2023-05-21T23:59:15.678Z,16.86
